Marriott, Utah
Current Conditions -  °F | °C
As of 9:35 AM on Tuesday 21 Oct 2014 (Local Time) from KOGD Reporting Station
Scattered Clouds Scattered Clouds  
Wind Chill: 62°   Ceiling: Unl
Heat Index: 62°   Visibility: 10mi
Dew Point: 41°   Wind: 8mph
Humidity: 46%   Direction: 260°W
Pressure: 29.92"   Gusts: 23mph
Location:  41.2701°N, 112.135°W
Report Text: KOGD 211535Z 26007G20KT 10SM FEW080 SCT110 17/05 A2992 RMK AO2 WSHFT 1515 T01670050
Loading
Personal Weather Stations






























Interactive Weather Map
Tropical Storm Tracking
New forecast layout! Learn more

10-Day Weather Forecast

Advertisements
Track Severe Weather on mobile